Time;durP1;ratioP1;P1;durP2;ratioP2;P2;SDS_P1;SDS_P2;PMS_P1;PMS_P2;Temp;Humidity;BMP_temperature;BMP_pressure;BME280_temperature;BME280_humidity;BME280_pressure;Samples;Min_cycle;Max_cycle;Signal;HPM_P1;HPM_P2
2023/06/06 00:02:26;;;;;;;0.77;0.77;;;15.90;99.90;;;;;;5022969;28;20541;-83
2023/06/06 00:04:53;;;;;;;0.50;0.33;;;15.90;99.90;;;;;;5022149;28;20501;-84
2023/06/06 00:07:20;;;;;;;0.60;0.50;;;16.00;99.90;;;;;;5022950;28;20470;-85
2023/06/06 00:09:47;;;;;;;0.50;0.40;;;15.90;99.90;;;;;;5022383;28;20443;-85
2023/06/06 00:12:14;;;;;;;0.50;0.40;;;15.90;99.90;;;;;;5021134;28;20541;-83
2023/06/06 00:14:41;;;;;;;0.50;0.40;;;15.90;99.90;;;;;;5020267;28;20453;-84
2023/06/06 00:17:09;;;;;;;0.50;0.40;;;15.90;99.90;;;;;;5020785;28;20462;-83
2023/06/06 00:19:40;;;;;;;0.50;0.40;;;15.90;99.90;;;;;;5021991;28;20482;-83
2023/06/06 00:22:07;;;;;;;0.50;0.40;;;15.90;99.90;;;;;;5018988;28;20451;-84
2023/06/06 00:24:34;;;;;;;0.50;0.40;;;15.90;99.90;;;;;;5018228;28;20510;-85
2023/06/06 00:27:01;;;;;;;0.80;0.80;;;15.90;99.90;;;;;;5017728;28;20470;-84
2023/06/06 00:29:27;;;;;;;0.50;0.40;;;15.90;99.90;;;;;;5018112;28;20454;-83
2023/06/06 00:31:54;;;;;;;0.50;0.40;;;15.80;99.90;;;;;;5018379;28;20449;-85
2023/06/06 00:34:21;;;;;;;0.50;0.40;;;15.80;99.90;;;;;;5018709;28;20442;-85
2023/06/06 00:36:49;;;;;;;0.50;0.40;;;15.70;99.90;;;;;;5018686;28;20471;-85
2023/06/06 00:39:16;;;;;;;0.50;0.40;;;15.70;99.90;;;;;;5018693;28;20453;-84
2023/06/06 00:41:42;;;;;;;0.50;0.40;;;15.60;99.90;;;;;;5018681;28;20457;-85
2023/06/06 00:44:09;;;;;;;0.50;0.40;;;15.50;99.90;;;;;;5018556;28;20978;-85
2023/06/06 00:46:36;;;;;;;0.50;0.40;;;15.50;99.90;;;;;;5018140;28;20922;-84
2023/06/06 00:49:03;;;;;;;0.70;0.70;;;15.40;99.90;;;;;;5018618;28;20443;-85
2023/06/06 00:51:30;;;;;;;0.50;0.30;;;15.40;99.90;;;;;;5019275;28;20435;-84
2023/06/06 00:54:00;;;;;;;0.50;0.40;;;15.30;99.90;;;;;;5018256;28;20445;-84
2023/06/06 00:56:28;;;;;;;0.50;0.40;;;15.20;99.90;;;;;;5018923;28;20521;-84
2023/06/06 00:58:57;;;;;;;0.50;0.40;;;15.20;99.90;;;;;;5018440;28;20510;-85
2023/06/06 01:01:25;;;;;;;0.50;0.40;;;15.20;99.90;;;;;;5018687;28;20854;-85
2023/06/06 01:03:52;;;;;;;1.47;1.37;;;15.10;99.90;;;;;;5018160;28;20454;-85
2023/06/06 01:06:22;;;;;;;0.50;0.40;;;15.10;99.90;;;;;;5018824;28;20803;-86
2023/06/06 01:08:49;;;;;;;3.53;1.63;;;15.10;99.90;;;;;;5017876;28;20454;-84
2023/06/06 01:11:23;;;;;;;0.50;0.40;;;15.00;99.90;;;;;;5018378;28;20481;-84
2023/06/06 01:13:57;;;;;;;0.50;0.40;;;14.90;99.90;;;;;;5018852;28;20466;-85
2023/06/06 01:16:24;;;;;;;0.60;0.60;;;14.90;99.90;;;;;;5017895;28;20524;-85
2023/06/06 01:18:53;;;;;;;0.50;0.40;;;14.90;99.90;;;;;;5018020;28;20447;-85
2023/06/06 01:21:21;;;;;;;0.83;0.83;;;14.90;99.90;;;;;;5018257;28;20878;-85
2023/06/06 01:23:50;;;;;;;0.50;0.40;;;14.80;99.90;;;;;;5017785;28;20446;-85
2023/06/06 01:26:17;;;;;;;0.50;0.40;;;14.80;99.90;;;;;;5017866;28;20459;-84
2023/06/06 01:28:44;;;;;;;0.50;0.40;;;14.80;99.90;;;;;;5017309;28;20439;-85
2023/06/06 01:31:15;;;;;;;2.20;1.03;;;14.80;99.90;;;;;;5017582;28;20889;-85
2023/06/06 01:33:50;;;;;;;0.50;0.40;;;14.70;99.90;;;;;;5016304;28;20443;-84
2023/06/06 01:36:28;;;;;;;0.50;0.40;;;14.70;99.90;;;;;;5017694;28;20832;-85
2023/06/06 01:39:00;;;;;;;0.60;0.60;;;14.60;99.90;;;;;;5017523;28;20447;-84
2023/06/06 01:41:30;;;;;;;0.50;0.40;;;14.60;99.90;;;;;;5018318;28;20506;-83
2023/06/06 01:43:58;;;;;;;0.63;0.63;;;14.60;99.90;;;;;;5017687;28;20458;-83
2023/06/06 01:46:26;;;;;;;0.50;0.40;;;14.60;99.90;;;;;;5017465;28;20455;-85
2023/06/06 01:48:54;;;;;;;0.50;0.40;;;14.60;99.90;;;;;;5017737;28;20461;-85
2023/06/06 01:51:21;;;;;;;0.70;0.70;;;14.60;99.90;;;;;;5017853;28;20470;-85
2023/06/06 01:53:47;;;;;;;0.50;0.40;;;14.60;99.90;;;;;;5017766;28;20446;-84
2023/06/06 01:56:16;;;;;;;0.50;0.40;;;14.50;99.90;;;;;;5017434;28;20447;-84
2023/06/06 01:58:42;;;;;;;0.50;0.40;;;14.50;99.90;;;;;;5016678;28;20462;-85
2023/06/06 02:01:09;;;;;;;0.63;0.60;;;14.40;99.90;;;;;;5017271;28;20851;-84
2023/06/06 02:03:37;;;;;;;0.50;0.40;;;14.40;99.90;;;;;;5017531;28;20530;-84
2023/06/06 02:06:05;;;;;;;0.50;0.40;;;14.40;99.90;;;;;;5008735;28;20443;-85
2023/06/06 02:08:32;;;;;;;0.50;0.40;;;14.40;99.90;;;;;;5017194;28;20439;-83
2023/06/06 02:10:58;;;;;;;0.50;0.40;;;14.30;99.90;;;;;;5017200;28;20443;-85
2023/06/06 02:13:27;;;;;;;0.50;0.40;;;14.30;99.90;;;;;;5017251;28;20815;-85
2023/06/06 02:15:57;;;;;;;0.50;0.40;;;14.20;99.90;;;;;;5017103;28;20542;-83
2023/06/06 02:18:24;;;;;;;0.50;0.40;;;14.20;99.90;;;;;;5016999;28;20465;-85
2023/06/06 02:20:50;;;;;;;0.50;0.40;;;14.20;99.90;;;;;;5016421;28;20474;-85
2023/06/06 02:23:18;;;;;;;0.50;0.40;;;14.10;99.90;;;;;;5017392;28;20439;-84
2023/06/06 02:25:45;;;;;;;0.50;0.40;;;14.10;99.90;;;;;;5016501;28;20811;-85
2023/06/06 02:28:14;;;;;;;0.50;0.40;;;14.10;99.90;;;;;;5016845;28;20846;-84
2023/06/06 02:30:42;;;;;;;0.50;0.40;;;14.10;99.90;;;;;;5015955;28;20445;-84
2023/06/06 02:33:09;;;;;;;3.43;1.03;;;14.10;99.90;;;;;;5017323;28;20474;-84
2023/06/06 02:35:36;;;;;;;0.50;0.40;;;14.00;99.90;;;;;;5017048;28;20439;-85
2023/06/06 02:38:03;;;;;;;0.50;0.40;;;14.00;99.90;;;;;;5016182;28;20966;-85
2023/06/06 02:40:29;;;;;;;0.50;0.40;;;14.00;99.90;;;;;;5016310;28;20482;-85
2023/06/06 02:42:56;;;;;;;0.50;0.40;;;14.00;99.90;;;;;;5016600;28;20826;-85
2023/06/06 02:45:23;;;;;;;0.50;0.40;;;14.00;99.90;;;;;;5016239;28;20451;-85
2023/06/06 02:47:51;;;;;;;0.50;0.40;;;14.00;99.90;;;;;;5016784;28;20467;-84
2023/06/06 02:50:19;;;;;;;0.50;0.40;;;13.90;99.90;;;;;;5016481;28;20431;-82
2023/06/06 02:52:46;;;;;;;0.50;0.40;;;13.90;99.90;;;;;;5015977;28;20534;-85
2023/06/06 02:55:13;;;;;;;0.50;0.40;;;13.80;99.90;;;;;;5016402;28;20446;-84
2023/06/06 02:57:39;;;;;;;0.50;0.50;;;13.80;99.90;;;;;;5016457;28;20565;-85
2023/06/06 03:00:08;;;;;;;0.50;0.40;;;13.80;99.90;;;;;;5014842;22;20509;-82
2023/06/06 03:02:35;;;;;;;0.50;0.40;;;13.80;99.90;;;;;;5005060;28;20489;-83
2023/06/06 03:05:04;;;;;;;0.50;0.40;;;13.70;99.90;;;;;;5013753;28;20855;-82
2023/06/06 03:07:32;;;;;;;1.20;0.87;;;13.70;99.90;;;;;;5013866;28;20450;-83
2023/06/06 03:09:58;;;;;;;0.50;0.40;;;13.70;99.90;;;;;;5013144;28;20474;-83
2023/06/06 03:12:25;;;;;;;0.50;0.40;;;13.70;99.90;;;;;;5014285;28;20446;-82
2023/06/06 03:14:52;;;;;;;0.50;0.50;;;13.60;99.90;;;;;;5012585;28;20443;-81
2023/06/06 03:17:19;;;;;;;0.50;0.40;;;13.50;99.90;;;;;;5013848;28;20443;-81
2023/06/06 03:19:50;;;;;;;0.50;0.50;;;13.50;99.90;;;;;;5013035;28;20471;-81
2023/06/06 03:22:18;;;;;;;3.93;2.50;;;13.40;99.90;;;;;;5012612;28;20502;-82
2023/06/06 03:24:46;;;;;;;0.50;0.40;;;13.40;99.90;;;;;;5012945;28;20818;-80
2023/06/06 03:27:13;;;;;;;0.50;0.40;;;13.40;99.90;;;;;;5012356;28;20815;-82
2023/06/06 03:29:40;;;;;;;0.50;0.40;;;13.40;99.90;;;;;;5012420;28;20524;-81
2023/06/06 03:32:08;;;;;;;0.50;0.40;;;13.40;99.90;;;;;;5011943;28;20481;-81
2023/06/06 03:34:35;;;;;;;1.43;1.33;;;13.30;99.90;;;;;;5012121;28;20439;-80
2023/06/06 03:37:02;;;;;;;0.50;0.40;;;13.30;99.90;;;;;;5011919;28;20833;-82
2023/06/06 03:39:30;;;;;;;0.50;0.40;;;13.30;99.90;;;;;;5011946;28;20455;-80
2023/06/06 03:41:57;;;;;;;0.50;0.40;;;13.20;99.90;;;;;;5011579;28;20486;-82
2023/06/06 03:44:24;;;;;;;0.50;0.40;;;13.20;99.90;;;;;;5011847;28;20450;-83
2023/06/06 03:46:50;;;;;;;0.50;0.50;;;13.20;99.90;;;;;;5011567;28;20961;-82
2023/06/06 03:49:17;;;;;;;0.50;0.50;;;13.20;99.90;;;;;;5011963;28;20470;-82
2023/06/06 03:51:44;;;;;;;0.50;0.40;;;13.20;99.90;;;;;;5012474;28;20450;-82
2023/06/06 03:54:11;;;;;;;0.70;0.60;;;13.20;99.90;;;;;;5003670;28;20526;-82
2023/06/06 03:56:40;;;;;;;0.50;0.40;;;13.20;99.90;;;;;;5011593;28;20451;-81
2023/06/06 03:59:11;;;;;;;1.20;1.20;;;13.20;99.90;;;;;;5014841;28;20557;-82
2023/06/06 04:01:38;;;;;;;0.50;0.40;;;13.20;99.90;;;;;;5015195;28;20578;-81
2023/06/06 04:04:06;;;;;;;0.50;0.40;;;13.30;99.90;;;;;;5015329;28;20453;-81
2023/06/06 04:06:33;;;;;;;2.30;2.20;;;13.30;99.90;;;;;;5014951;28;20504;-82
2023/06/06 04:09:00;;;;;;;0.80;0.80;;;13.30;99.90;;;;;;5015125;28;20467;-82
2023/06/06 04:11:26;;;;;;;0.93;0.93;;;13.30;99.90;;;;;;5015367;28;20438;-81
2023/06/06 04:13:54;;;;;;;0.50;0.40;;;13.30;99.90;;;;;;5014892;28;20446;-82
2023/06/06 04:16:21;;;;;;;0.53;0.43;;;13.30;99.90;;;;;;5015657;28;20474;-82
2023/06/06 04:18:48;;;;;;;2.80;0.80;;;13.30;99.90;;;;;;5015148;28;20482;-83
2023/06/06 04:21:15;;;;;;;0.50;0.40;;;13.30;99.90;;;;;;5014764;28;20483;-82
2023/06/06 04:23:42;;;;;;;0.50;0.40;;;13.40;99.90;;;;;;5014660;28;20458;-82
2023/06/06 04:26:11;;;;;;;0.50;0.40;;;13.40;99.90;;;;;;5014780;28;20450;-81
2023/06/06 04:28:39;;;;;;;9.00;1.37;;;13.40;99.90;;;;;;5014364;28;20455;-83
2023/06/06 04:31:07;;;;;;;0.50;0.40;;;13.40;99.90;;;;;;5014912;28;20951;-82
2023/06/06 04:33:34;;;;;;;0.50;0.40;;;13.50;99.90;;;;;;5012590;28;20459;-79
2023/06/06 04:36:01;;;;;;;0.50;0.40;;;13.50;99.90;;;;;;5013809;28;20451;-81
2023/06/06 04:38:29;;;;;;;0.50;0.40;;;13.40;99.90;;;;;;5014792;28;20597;-80
2023/06/06 04:41:01;;;;;;;0.50;0.40;;;13.40;99.90;;;;;;5014426;28;20519;-81
2023/06/06 04:43:28;;;;;;;0.93;0.93;;;13.40;99.90;;;;;;5019882;28;20443;-81
2023/06/06 04:46:00;;;;;;;0.50;0.40;;;13.40;99.90;;;;;;5015562;28;20665;-81
2023/06/06 04:48:29;;;;;;;0.97;0.97;;;13.50;99.90;;;;;;5020646;28;20457;-79
2023/06/06 04:50:56;;;;;;;0.50;0.40;;;13.60;99.90;;;;;;5014114;28;20439;-82
2023/06/06 04:53:23;;;;;;;0.60;0.57;;;13.60;99.90;;;;;;5015062;28;21004;-83
2023/06/06 04:55:51;;;;;;;0.50;0.40;;;13.60;99.90;;;;;;5016243;28;20450;-82
2023/06/06 04:58:20;;;;;;;0.50;0.40;;;13.60;99.90;;;;;;5016864;28;20443;-81
2023/06/06 05:00:47;;;;;;;0.63;0.63;;;13.60;99.90;;;;;;5014985;28;20477;-81
2023/06/06 05:03:19;;;;;;;0.50;0.40;;;13.70;99.90;;;;;;5007224;28;20439;-81
2023/06/06 05:05:49;;;;;;;0.80;0.77;;;13.70;99.90;;;;;;5015199;28;20443;-82
2023/06/06 05:08:16;;;;;;;0.50;0.40;;;13.80;99.90;;;;;;5006420;28;20439;-81
2023/06/06 05:10:43;;;;;;;0.50;0.40;;;13.80;99.90;;;;;;5015154;28;20458;-81
2023/06/06 05:13:10;;;;;;;0.50;0.40;;;13.90;99.90;;;;;;5014699;28;20970;-82
2023/06/06 05:15:37;;;;;;;6.93;1.47;;;13.90;99.90;;;;;;5014114;28;20442;-81
2023/06/06 05:18:04;;;;;;;0.50;0.40;;;14.00;99.90;;;;;;5014385;28;20538;-81
2023/06/06 05:20:30;;;;;;;0.53;0.53;;;14.00;99.90;;;;;;5015107;28;20474;-79
2023/06/06 05:22:59;;;;;;;0.50;0.50;;;14.10;99.90;;;;;;5014519;28;20478;-83
2023/06/06 05:25:26;;;;;;;0.73;0.50;;;14.20;99.90;;;;;;5014434;28;20454;-82
2023/06/06 05:27:53;;;;;;;0.50;0.40;;;14.30;99.90;;;;;;5015061;28;20537;-82
2023/06/06 05:30:20;;;;;;;0.50;0.40;;;14.30;99.90;;;;;;5016105;28;20463;-82
2023/06/06 05:32:47;;;;;;;0.97;0.97;;;14.40;99.90;;;;;;5014954;28;20439;-83
2023/06/06 05:35:13;;;;;;;2.50;1.77;;;14.50;99.90;;;;;;5015657;28;20450;-82
2023/06/06 05:37:42;;;;;;;0.50;0.40;;;14.50;99.90;;;;;;5015003;28;20447;-80
2023/06/06 05:40:11;;;;;;;7.10;1.17;;;14.50;99.90;;;;;;5014430;28;20503;-82
2023/06/06 05:42:38;;;;;;;0.50;0.50;;;14.60;99.90;;;;;;5014900;28;20850;-82
2023/06/06 05:45:06;;;;;;;1.93;1.83;;;14.70;99.90;;;;;;5015010;28;20498;-82
2023/06/06 05:47:33;;;;;;;0.50;0.40;;;14.80;99.90;;;;;;5014696;28;20530;-82
2023/06/06 05:50:00;;;;;;;0.50;0.40;;;14.90;99.90;;;;;;5014143;28;20471;-81
2023/06/06 05:52:27;;;;;;;1.67;0.77;;;15.00;99.90;;;;;;5014389;28;20439;-83
2023/06/06 05:55:02;;;;;;;0.50;0.40;;;15.10;99.90;;;;;;5014523;28;20439;-82
2023/06/06 05:57:30;;;;;;;0.50;0.40;;;15.20;99.90;;;;;;5015111;28;20443;-82
2023/06/06 06:00:00;;;;;;;0.50;0.40;;;15.40;99.90;;;;;;5014309;28;20841;-82
2023/06/06 06:02:28;;;;;;;0.90;0.90;;;15.60;99.90;;;;;;5014716;28;20474;-82
2023/06/06 06:04:56;;;;;;;1.67;1.57;;;15.70;99.90;;;;;;5014303;28;20473;-82
2023/06/06 06:07:23;;;;;;;0.50;0.40;;;15.80;99.90;;;;;;5013992;28;20447;-80
2023/06/06 06:09:50;;;;;;;2.30;0.80;;;15.90;99.90;;;;;;5014640;28;20466;-81
2023/06/06 06:12:17;;;;;;;0.50;0.40;;;15.90;99.90;;;;;;5016993;28;20435;-82
2023/06/06 06:14:45;;;;;;;0.50;0.40;;;15.80;99.90;;;;;;5015874;28;20443;-82
2023/06/06 06:17:12;;;;;;;2.20;1.60;;;15.80;99.90;;;;;;5016546;28;20438;-83
2023/06/06 06:19:38;;;;;;;0.50;0.40;;;16.10;99.90;;;;;;5016736;28;20454;-83
2023/06/06 06:22:05;;;;;;;6.33;1.33;;;16.40;99.90;;;;;;5015569;28;20479;-82
2023/06/06 06:24:32;;;;;;;1.23;1.23;;;16.50;99.90;;;;;;5015185;28;20454;-82
2023/06/06 06:26:59;;;;;;;0.90;0.73;;;16.60;99.90;;;;;;5014625;28;20453;-82
2023/06/06 06:29:26;;;;;;;0.70;0.70;;;16.70;99.90;;;;;;5016181;28;20478;-82
2023/06/06 06:31:54;;;;;;;0.97;0.87;;;16.90;99.90;;;;;;5016068;28;20454;-81
2023/06/06 06:34:21;;;;;;;0.57;0.40;;;17.20;99.90;;;;;;5007417;28;20975;-82
2023/06/06 06:36:48;;;;;;;2.90;1.17;;;17.60;99.90;;;;;;5013578;28;20438;-81
2023/06/06 06:39:18;;;;;;;3.00;0.97;;;17.70;99.90;;;;;;5014046;28;20470;-82
2023/06/06 06:41:45;;;;;;;0.57;0.53;;;18.30;99.90;;;;;;5014671;28;20475;-83
2023/06/06 06:44:12;;;;;;;0.60;0.50;;;18.80;99.90;;;;;;5012926;28;20807;-82
2023/06/06 06:46:39;;;;;;;0.50;0.30;;;19.70;99.90;;;;;;5013594;28;20802;-82
2023/06/06 06:49:14;;;;;;;0.87;0.87;;;20.20;99.90;;;;;;5013041;28;20467;-84
2023/06/06 06:51:41;;;;;;;0.60;0.50;;;20.60;99.90;;;;;;5013217;28;21175;-82
2023/06/06 06:54:10;;;;;;;0.73;0.73;;;21.00;99.90;;;;;;5012894;28;20497;-82
2023/06/06 06:56:37;;;;;;;2.43;2.20;;;21.50;99.90;;;;;;5014568;28;20454;-82
2023/06/06 06:59:05;;;;;;;2.83;0.93;;;21.60;99.90;;;;;;5014059;28;20525;-83
2023/06/06 07:01:32;;;;;;;0.60;0.60;;;21.60;99.90;;;;;;5016369;28;20510;-83
2023/06/06 07:03:59;;;;;;;1.63;1.50;;;22.30;99.90;;;;;;5013891;28;20447;-82
2023/06/06 07:06:32;;;;;;;3.13;0.97;;;21.70;99.90;;;;;;5013652;28;20525;-81
2023/06/06 07:09:00;;;;;;;0.77;0.53;;;21.10;99.90;;;;;;5014487;28;20847;-81
2023/06/06 07:11:27;;;;;;;2.80;1.57;;;21.10;99.90;;;;;;5013716;28;20447;-80
2023/06/06 07:13:55;;;;;;;2.00;1.07;;;21.30;99.90;;;;;;5013615;28;20927;-81
2023/06/06 07:16:23;;;;;;;1.50;1.40;;;21.10;99.90;;;;;;5007027;28;20491;-81
2023/06/06 07:18:51;;;;;;;1.70;1.60;;;21.10;99.90;;;;;;5015214;28;20557;-82
2023/06/06 07:21:19;;;;;;;0.97;0.70;;;22.10;99.90;;;;;;5012994;28;20882;-83
2023/06/06 07:23:48;;;;;;;1.20;0.77;;;22.70;99.90;;;;;;5013101;28;20483;-82
2023/06/06 07:26:16;;;;;;;1.57;1.13;;;23.10;99.90;;;;;;5012537;28;20451;-81
2023/06/06 07:28:43;;;;;;;3.07;1.33;;;22.50;99.90;;;;;;5013061;28;20449;-81
2023/06/06 07:31:10;;;;;;;0.50;0.40;;;21.80;99.90;;;;;;5016357;28;20446;-81
2023/06/06 07:33:36;;;;;;;1.60;1.47;;;21.50;99.90;;;;;;5019755;28;20442;-80
2023/06/06 07:36:04;;;;;;;0.60;0.60;;;22.20;99.90;;;;;;5020402;28;21100;-81
2023/06/06 07:38:30;;;;;;;3.17;2.97;;;22.10;99.90;;;;;;5020963;28;20449;-81
2023/06/06 07:40:59;;;;;;;0.50;0.30;;;22.70;99.90;;;;;;5020910;28;20442;-82
2023/06/06 07:43:25;;;;;;;0.60;0.60;;;23.00;99.90;;;;;;5020998;28;20475;-82
2023/06/06 07:45:52;;;;;;;0.87;0.87;;;23.70;99.90;;;;;;5020423;28;20449;-80
2023/06/06 07:48:19;;;;;;;1.43;1.27;;;24.70;99.90;;;;;;5019985;28;20439;-80
2023/06/06 07:50:46;;;;;;;0.50;0.30;;;25.20;99.90;;;;;;5020516;28;20561;-80
2023/06/06 07:53:13;;;;;;;2.50;2.40;;;25.40;94.50;;;;;;5019620;28;20435;-79
2023/06/06 07:55:40;;;;;;;6.00;1.00;;;25.20;95.30;;;;;;5019261;28;20865;-79
2023/06/06 07:58:10;;;;;;;0.70;0.70;;;25.70;93.80;;;;;;5020585;28;20454;-82
2023/06/06 08:00:37;;;;;;;0.60;0.60;;;25.80;93.70;;;;;;5020077;28;20988;-80
2023/06/06 08:03:04;;;;;;;5.10;0.80;;;26.10;93.10;;;;;;5019542;28;20470;-80
2023/06/06 08:05:34;;;;;;;1.63;1.23;;;26.30;91.20;;;;;;5020165;28;20478;-82
2023/06/06 08:08:01;;;;;;;1.50;0.70;;;26.90;90.80;;;;;;5019778;28;20451;-80
2023/06/06 08:10:28;;;;;;;0.60;0.43;;;27.60;90.00;;;;;;5019678;28;20466;-80
2023/06/06 08:12:54;;;;;;;0.70;0.60;;;28.00;84.60;;;;;;5020123;28;20439;-80
2023/06/06 08:15:23;;;;;;;0.50;0.30;;;28.20;83.40;;;;;;5019651;28;20534;-80
2023/06/06 08:17:49;;;;;;;0.60;0.50;;;28.90;82.20;;;;;;5020484;28;20448;-80
2023/06/06 08:20:19;;;;;;;1.17;1.03;;;29.30;78.30;;;;;;5020231;28;20466;-81
2023/06/06 08:22:49;;;;;;;0.60;0.40;;;29.30;74.90;;;;;;5020548;28;20569;-80
2023/06/06 08:25:16;;;;;;;1.47;1.17;;;29.30;74.70;;;;;;5019684;28;20444;-80
2023/06/06 08:27:43;;;;;;;3.30;3.10;;;29.30;74.70;;;;;;5020472;28;20447;-79
2023/06/06 08:30:11;;;;;;;0.50;0.30;;;29.50;77.00;;;;;;5021035;28;20467;-81
2023/06/06 08:32:39;;;;;;;1.13;1.13;;;29.80;73.00;;;;;;5020642;28;21009;-82
2023/06/06 08:35:07;;;;;;;0.90;0.90;;;29.90;71.60;;;;;;5019501;28;20474;-82
2023/06/06 08:37:33;;;;;;;0.50;0.30;;;30.30;70.00;;;;;;5020367;28;20462;-82
2023/06/06 08:40:00;;;;;;;0.60;0.50;;;30.20;71.00;;;;;;5020211;28;20530;-82
2023/06/06 08:42:30;;;;;;;1.27;0.97;;;30.30;69.70;;;;;;5011418;28;20557;-80
2023/06/06 08:44:58;;;;;;;9.20;1.60;;;30.50;69.40;;;;;;5019539;28;20534;-82
2023/06/06 08:47:26;;;;;;;3.27;1.33;;;30.80;71.00;;;;;;5019866;28;20447;-82
2023/06/06 08:49:55;;;;;;;1.23;1.13;;;30.60;68.40;;;;;;5019773;28;20464;-83
2023/06/06 08:52:22;;;;;;;0.83;0.83;;;30.70;68.60;;;;;;5020000;28;20450;-80
2023/06/06 08:54:50;;;;;;;2.40;2.30;;;30.80;67.80;;;;;;5019756;28;20834;-81
2023/06/06 08:57:19;;;;;;;1.07;0.97;;;31.00;67.20;;;;;;5019353;28;20447;-80
2023/06/06 09:02:12;;;;;;;0.60;0.60;;;31.00;64.20;;;;;;5039258;22;20937;-81
2023/06/06 09:04:42;;;;;;;0.70;0.63;;;31.20;65.80;;;;;;4998960;28;20890;-81
2023/06/06 09:07:12;;;;;;;13.70;2.40;;;31.30;63.30;;;;;;5008056;28;20451;-81
2023/06/06 09:09:40;;;;;;;1.23;1.13;;;31.40;63.50;;;;;;5011026;28;20530;-84
2023/06/06 09:12:08;;;;;;;0.50;0.30;;;30.50;64.90;;;;;;5009419;28;20470;-83
2023/06/06 09:14:35;;;;;;;1.30;0.70;;;30.80;67.10;;;;;;5006471;28;20451;-81
2023/06/06 09:17:03;;;;;;;0.50;0.30;;;31.20;66.90;;;;;;5007318;28;20469;-83
2023/06/06 09:19:31;;;;;;;0.60;0.47;;;31.60;64.70;;;;;;5001948;28;20930;-81
2023/06/06 09:21:59;;;;;;;1.43;0.60;;;32.10;63.60;;;;;;5010612;28;20464;-81
2023/06/06 09:24:27;;;;;;;0.60;0.60;;;32.70;61.80;;;;;;5002261;28;20443;-81
2023/06/06 09:26:54;;;;;;;0.50;0.50;;;32.40;60.90;;;;;;5010146;28;20447;-82
2023/06/06 09:29:22;;;;;;;0.50;0.40;;;32.80;63.40;;;;;;5007608;28;20443;-84
2023/06/06 09:31:48;;;;;;;1.70;1.60;;;33.00;62.20;;;;;;5005839;28;20459;-83
2023/06/06 09:34:16;;;;;;;0.50;0.30;;;32.90;60.30;;;;;;5009112;28;20443;-83
2023/06/06 09:36:44;;;;;;;1.03;0.80;;;33.00;61.50;;;;;;5006790;28;20459;-82
2023/06/06 09:39:12;;;;;;;0.50;0.30;;;33.30;59.80;;;;;;5007539;28;20440;-85
2023/06/06 09:41:41;;;;;;;1.67;1.47;;;33.30;60.00;;;;;;5009870;28;20459;-83
2023/06/06 09:44:19;;;;;;;0.50;0.30;;;33.40;59.20;;;;;;5009762;28;20486;-83
2023/06/06 09:46:45;;;;;;;0.40;0.30;;;33.90;59.00;;;;;;5003927;28;20489;-82
2023/06/06 09:49:12;;;;;;;1.27;1.17;;;34.30;58.60;;;;;;5008440;28;20439;-83
2023/06/06 09:51:42;;;;;;;0.50;0.30;;;34.50;58.80;;;;;;5006168;28;20460;-83
2023/06/06 09:54:09;;;;;;;0.93;0.83;;;34.30;56.50;;;;;;5006011;28;20443;-83
2023/06/06 09:56:39;;;;;;;0.40;0.30;;;34.10;57.70;;;;;;5010586;28;20448;-83
2023/06/06 09:59:08;;;;;;;0.50;0.40;;;34.00;57.80;;;;;;5008754;28;20446;-82
2023/06/06 10:01:40;;;;;;;0.50;0.40;;;34.30;56.60;;;;;;5006123;28;20467;-83
2023/06/06 10:04:09;;;;;;;0.50;0.30;;;34.40;56.10;;;;;;5005721;28;20486;-82
2023/06/06 10:06:38;;;;;;;2.40;0.50;;;34.90;57.80;;;;;;5005864;28;20500;-84
2023/06/06 10:09:06;;;;;;;0.50;0.40;;;34.80;57.10;;;;;;5006174;28;20540;-83
2023/06/06 10:11:34;;;;;;;0.40;0.30;;;34.80;56.50;;;;;;4998144;28;20463;-83
2023/06/06 10:14:02;;;;;;;0.97;0.70;;;35.10;55.50;;;;;;5005552;28;20441;-83
2023/06/06 10:16:31;;;;;;;0.50;0.30;;;35.20;55.20;;;;;;5007899;28;20503;-83
2023/06/06 10:18:58;;;;;;;0.40;0.30;;;35.10;55.50;;;;;;5010555;28;20436;-82
2023/06/06 10:21:25;;;;;;;0.50;0.47;;;35.00;54.40;;;;;;5008159;28;20464;-84
2023/06/06 10:23:53;;;;;;;0.50;0.40;;;35.00;53.80;;;;;;5009478;28;20474;-83
2023/06/06 10:26:39;;;;;;;0.53;0.53;;;34.70;55.40;;;;;;5006438;28;20469;-83
2023/06/06 10:29:09;;;;;;;0.50;0.43;;;35.30;56.10;;;;;;5005713;28;21038;-83
2023/06/06 10:31:53;;;;;;;0.40;0.40;;;35.30;54.20;;;;;;5005170;28;20465;-84
2023/06/06 10:34:25;;;;;;;0.67;0.50;;;35.30;56.10;;;;;;5007795;28;20451;-83
2023/06/06 10:36:52;;;;;;;0.60;0.60;;;35.20;53.60;;;;;;5008935;28;20449;-84
2023/06/06 10:39:20;;;;;;;0.50;0.30;;;35.30;54.80;;;;;;5007284;28;20453;-83
2023/06/06 10:41:55;;;;;;;1.10;1.00;;;35.40;52.70;;;;;;5005747;28;20465;-83
2023/06/06 10:44:26;;;;;;;3.23;1.40;;;33.90;53.00;;;;;;5007371;28;20513;-84
2023/06/06 10:47:24;;;;;;;1.37;0.47;;;33.70;54.30;;;;;;5008747;28;20454;-83
2023/06/06 10:50:22;;;;;;;0.43;0.30;;;33.90;55.30;;;;;;4999347;28;20448;-82
2023/06/06 10:52:52;;;;;;;0.50;0.50;;;34.70;55.50;;;;;;5000383;28;20441;-84
2023/06/06 10:55:34;;;;;;;0.70;0.60;;;35.20;54.50;;;;;;5006241;28;20455;-83
2023/06/06 10:58:05;;;;;;;5.33;1.17;;;35.40;52.80;;;;;;5008941;28;20443;-81
2023/06/06 11:00:34;;;;;;;0.50;0.50;;;34.70;52.90;;;;;;5005134;28;20463;-83
2023/06/06 11:03:07;;;;;;;0.60;0.60;;;35.00;53.10;;;;;;5005021;28;20481;-82
2023/06/06 11:05:34;;;;;;;0.40;0.40;;;35.50;52.40;;;;;;5008529;28;20999;-83
2023/06/06 11:08:01;;;;;;;0.40;0.30;;;35.70;52.20;;;;;;5008499;28;20481;-82
2023/06/06 11:10:30;;;;;;;0.40;0.30;;;36.20;53.30;;;;;;5005411;28;20471;-84
2023/06/06 11:12:57;;;;;;;0.83;0.70;;;36.80;51.80;;;;;;5004340;28;20442;-83
2023/06/06 11:15:28;;;;;;;0.50;0.40;;;36.60;49.50;;;;;;5006796;28;20802;-85
2023/06/06 11:18:02;;;;;;;0.40;0.30;;;36.30;49.60;;;;;;5008929;28;20510;-84
2023/06/06 11:20:39;;;;;;;1.73;1.07;;;35.80;50.50;;;;;;5005459;28;20468;-83
2023/06/06 11:23:06;;;;;;;0.40;0.30;;;35.40;49.60;;;;;;5013177;28;20482;-83
2023/06/06 11:25:35;;;;;;;2.03;1.83;;;35.70;52.00;;;;;;5004581;28;20952;-84
2023/06/06 11:28:02;;;;;;;0.50;0.47;;;36.00;50.20;;;;;;5005195;28;20458;-83
2023/06/06 11:30:31;;;;;;;2.30;2.20;;;35.90;50.90;;;;;;5004297;28;20470;-82
2023/06/06 11:32:58;;;;;;;0.40;0.30;;;36.40;49.60;;;;;;5004572;28;20857;-82
2023/06/06 11:35:28;;;;;;;1.23;1.23;;;36.70;50.00;;;;;;5004857;28;20445;-82
2023/06/06 11:37:56;;;;;;;0.57;0.57;;;37.00;47.90;;;;;;4997454;28;20447;-82
2023/06/06 11:40:26;;;;;;;0.40;0.30;;;36.80;48.40;;;;;;5005817;28;20468;-82
2023/06/06 11:42:53;;;;;;;1.03;1.03;;;37.10;48.10;;;;;;5008228;28;20487;-82
2023/06/06 11:45:20;;;;;;;0.40;0.30;;;37.20;50.30;;;;;;5007691;28;20530;-81
2023/06/06 11:47:48;;;;;;;0.40;0.40;;;37.30;49.20;;;;;;5003869;28;20912;-84
2023/06/06 11:50:26;;;;;;;0.40;0.30;;;37.20;47.60;;;;;;5012673;28;20542;-81
2023/06/06 11:52:53;;;;;;;0.40;0.30;;;37.50;49.00;;;;;;5004113;28;20832;-78
2023/06/06 11:55:35;;;;;;;0.40;0.30;;;37.40;49.20;;;;;;5005351;28;20448;-82
2023/06/06 11:58:03;;;;;;;0.40;0.30;;;37.30;46.20;;;;;;5008811;28;20559;-82
2023/06/06 12:00:31;;;;;;;0.40;0.30;;;37.40;47.10;;;;;;5005580;28;20495;-81
2023/06/06 12:02:59;;;;;;;0.70;0.40;;;37.50;46.00;;;;;;5004919;28;20444;-82
2023/06/06 12:05:26;;;;;;;0.40;0.30;;;37.60;47.10;;;;;;5005687;28;20452;-82
2023/06/06 12:07:58;;;;;;;2.53;1.27;;;37.40;46.90;;;;;;5007914;28;20480;-82
2023/06/06 12:10:27;;;;;;;0.40;0.40;;;37.40;48.10;;;;;;5005600;28;20468;-83
2023/06/06 12:12:55;;;;;;;0.43;0.40;;;37.30;48.70;;;;;;5004442;28;20534;-84
2023/06/06 12:15:22;;;;;;;0.40;0.30;;;37.20;46.50;;;;;;5005546;28;20451;-83
2023/06/06 12:17:49;;;;;;;0.60;0.60;;;37.30;46.10;;;;;;5007092;28;20442;-82
2023/06/06 12:20:23;;;;;;;0.57;0.57;;;37.10;42.60;;;;;;5010461;28;20490;-82
2023/06/06 12:22:50;;;;;;;0.60;0.57;;;36.70;42.10;;;;;;5012278;28;20501;-82
2023/06/06 12:25:27;;;;;;;0.40;0.30;;;36.80;44.70;;;;;;5011146;28;20831;-82
2023/06/06 12:27:54;;;;;;;0.43;0.40;;;37.10;44.10;;;;;;5010994;28;20832;-84
2023/06/06 12:30:30;;;;;;;0.40;0.30;;;37.50;43.40;;;;;;5010901;28;20548;-82
2023/06/06 12:32:58;;;;;;;0.43;0.40;;;37.60;44.30;;;;;;5014465;28;20450;-82
2023/06/06 12:35:25;;;;;;;0.40;0.30;;;37.80;43.50;;;;;;5010375;28;20446;-83
2023/06/06 12:37:52;;;;;;;3.80;1.27;;;38.10;44.40;;;;;;5008053;28;20876;-83
2023/06/06 12:40:20;;;;;;;0.50;0.40;;;38.30;40.80;;;;;;5007847;28;20466;-83
2023/06/06 12:42:56;;;;;;;0.40;0.30;;;37.30;41.10;;;;;;5011054;28;20602;-83
2023/06/06 12:45:24;;;;;;;0.40;0.30;;;37.10;42.60;;;;;;5009995;28;20526;-82
2023/06/06 12:47:52;;;;;;;0.40;0.30;;;35.90;41.80;;;;;;5007040;28;20440;-82
2023/06/06 12:50:19;;;;;;;0.40;0.30;;;35.80;44.40;;;;;;5014684;28;20464;-82
2023/06/06 12:52:45;;;;;;;0.93;0.93;;;35.40;44.10;;;;;;5007515;28;20432;-82
2023/06/06 12:55:12;;;;;;;17.70;3.30;;;34.60;45.00;;;;;;5006786;28;20822;-83
2023/06/06 12:57:39;;;;;;;0.50;0.30;;;34.20;46.60;;;;;;5007323;28;20443;-83